createdAt,value
2023-03-05T00:01:18.397Z,12.52
2023-03-05T00:03:46.806Z,15.27
2023-03-05T00:06:14.385Z,10.63
2023-03-05T00:08:41.833Z,16.20
2023-03-05T00:11:11.730Z,11.45
2023-03-05T00:13:39.966Z,15.30
2023-03-05T00:16:09.684Z,14.55
2023-03-05T00:18:37.952Z,17.08
2023-03-05T00:21:06.032Z,14.98
2023-03-05T00:23:33.829Z,17.10
2023-03-05T00:26:03.803Z,16.95
2023-03-05T00:28:31.242Z,19.88
2023-03-05T00:31:01.337Z,13.80
2023-03-05T00:33:28.924Z,15.48
2023-03-05T00:35:55.997Z,18.33
2023-03-05T00:38:23.353Z,23.35
2023-03-05T00:40:51.688Z,14.30
2023-03-05T00:43:18.890Z,16.95
2023-03-05T00:45:46.056Z,11.30
2023-03-05T00:48:13.276Z,11.70
2023-03-05T00:50:40.541Z,11.52
2023-03-05T00:53:07.736Z,13.85
2023-03-05T00:55:36.170Z,15.65
2023-03-05T00:58:03.493Z,17.27
2023-03-05T01:00:30.432Z,16.23
2023-03-05T01:02:58.076Z,13.10
2023-03-05T01:05:26.439Z,11.73
2023-03-05T01:07:54.745Z,14.00
2023-03-05T01:10:23.724Z,17.02
2023-03-05T01:12:51.111Z,13.52
2023-03-05T01:15:18.522Z,15.45
2023-03-05T01:17:45.940Z,11.43
2023-03-05T01:20:15.533Z,12.32
2023-03-05T01:22:42.752Z,11.23
2023-03-05T01:25:10.422Z,14.45
2023-03-05T01:27:37.670Z,13.15
2023-03-05T01:30:08.568Z,15.95
2023-03-05T01:32:36.345Z,10.93
2023-03-05T01:35:05.180Z,17.83
2023-03-05T01:37:32.859Z,12.48
2023-03-05T01:40:00.107Z,11.07
2023-03-05T01:42:27.410Z,18.15
2023-03-05T01:45:13.390Z,9.15
2023-03-05T01:47:40.577Z,12.85
2023-03-05T01:50:16.053Z,23.13
2023-03-05T01:52:49.309Z,13.73
2023-03-05T01:55:26.152Z,16.30
2023-03-05T01:58:01.986Z,17.45
2023-03-05T02:00:38.616Z,13.73
2023-03-05T02:03:09.790Z,15.52
2023-03-05T02:05:39.095Z,15.18
2023-03-05T02:08:10.433Z,13.63
2023-03-05T02:10:40.465Z,13.95
2023-03-05T02:13:12.319Z,13.73
2023-03-05T02:18:08.114Z,16.88
2023-03-05T02:21:00.416Z,15.80
2023-03-05T02:23:32.880Z,17.70
2023-03-05T02:26:00.147Z,15.55
2023-03-05T02:28:27.825Z,13.10
2023-03-05T02:30:54.700Z,16.00
2023-03-05T02:33:22.910Z,13.63
2023-03-05T02:35:50.199Z,19.95
2023-03-05T02:38:20.839Z,13.15
2023-03-05T02:40:48.162Z,13.43
2023-03-05T02:43:18.063Z,18.67
2023-03-05T02:45:45.679Z,14.88
2023-03-05T02:48:12.906Z,16.42
2023-03-05T02:50:41.516Z,14.13
2023-03-05T02:53:09.081Z,14.00
2023-03-05T02:55:37.766Z,11.68
2023-03-05T02:58:06.174Z,15.43
2023-03-05T03:00:33.473Z,13.50
2023-03-05T03:03:00.655Z,14.65
2023-03-05T03:05:27.578Z,15.38
2023-03-05T03:07:56.248Z,14.55
2023-03-05T03:10:23.639Z,13.85
2023-03-05T03:12:50.869Z,12.20
2023-03-05T03:15:18.792Z,14.52
2023-03-05T03:17:46.288Z,16.30
2023-03-05T03:20:16.657Z,15.07
2023-03-05T03:22:46.104Z,15.27
2023-03-05T03:25:18.769Z,14.00
2023-03-05T03:27:46.312Z,12.70
2023-03-05T03:30:13.992Z,20.55
2023-03-05T03:32:41.638Z,15.52
2023-03-05T03:35:09.531Z,13.05
2023-03-05T03:37:37.081Z,15.23
2023-03-05T03:40:05.828Z,14.40
2023-03-05T03:42:33.867Z,18.30
2023-03-05T03:45:02.322Z,16.85
2023-03-05T03:47:31.152Z,16.17
2023-03-05T03:49:59.053Z,22.20
2023-03-05T03:52:27.140Z,19.40
2023-03-05T03:54:55.814Z,14.30
2023-03-05T03:57:23.641Z,13.98
2023-03-05T03:59:51.062Z,12.65
2023-03-05T04:02:18.750Z,13.55
2023-03-05T04:04:45.798Z,17.42
2023-03-05T04:07:13.198Z,15.73
2023-03-05T04:09:40.069Z,9.68
2023-03-05T04:12:07.754Z,14.60
2023-03-05T04:14:35.152Z,15.55
2023-03-05T04:17:02.967Z,14.85
2023-03-05T04:19:31.033Z,17.20
2023-03-05T04:21:59.169Z,15.40
2023-03-05T04:24:26.298Z,18.50
2023-03-05T04:26:53.978Z,14.60
2023-03-05T04:29:21.171Z,13.68
2023-03-05T04:31:48.336Z,15.18
2023-03-05T04:34:15.490Z,13.80
2023-03-05T04:36:42.646Z,14.82
2023-03-05T04:39:09.561Z,17.67
2023-03-05T04:41:36.762Z,13.45
2023-03-05T04:44:03.897Z,13.77
2023-03-05T04:46:31.222Z,10.55
2023-03-05T04:48:59.169Z,12.75
2023-03-05T04:51:26.553Z,17.77
2023-03-05T04:53:53.882Z,12.93
2023-03-05T04:56:21.070Z,12.40
2023-03-05T04:58:48.326Z,14.75
2023-03-05T05:01:15.651Z,13.52
2023-03-05T05:03:42.784Z,12.68
2023-03-05T05:06:10.204Z,12.38
2023-03-05T05:08:38.198Z,13.45
2023-03-05T05:11:08.004Z,13.57
2023-03-05T05:13:35.628Z,10.90
2023-03-05T05:16:05.865Z,17.38
2023-03-05T05:18:33.286Z,13.48
2023-03-05T05:21:00.919Z,9.93
2023-03-05T05:23:28.069Z,13.38
2023-03-05T05:26:03.909Z,12.18
2023-03-05T05:28:31.690Z,10.32
2023-03-05T05:30:59.299Z,15.50
2023-03-05T05:33:27.286Z,16.33
2023-03-05T05:35:54.788Z,11.27
2023-03-05T05:38:21.942Z,12.45
2023-03-05T05:40:49.076Z,8.82
2023-03-05T05:43:16.157Z,13.02
2023-03-05T05:45:43.695Z,13.63
2023-03-05T05:48:10.959Z,11.38
2023-03-05T05:50:39.100Z,11.93
2023-03-05T05:53:06.264Z,8.07
2023-03-05T05:55:33.545Z,22.70
2023-03-05T05:58:00.873Z,12.45
2023-03-05T06:00:30.138Z,13.93
2023-03-05T06:02:57.235Z,12.27
2023-03-05T06:05:24.599Z,15.18
2023-03-05T06:07:51.545Z,10.10
2023-03-05T06:10:19.846Z,8.32
2023-03-05T06:12:47.542Z,9.32
2023-03-05T06:15:15.022Z,12.45
2023-03-05T06:17:42.045Z,11.60
2023-03-05T06:20:10.537Z,11.75
2023-03-05T06:22:39.410Z,9.23
2023-03-05T06:25:08.303Z,6.80
2023-03-05T06:27:36.443Z,9.35
2023-03-05T06:30:05.592Z,12.35
2023-03-05T06:32:32.803Z,11.60
2023-03-05T06:35:00.151Z,8.18
2023-03-05T06:37:27.076Z,14.27
2023-03-05T06:39:54.338Z,11.07
2023-03-05T06:42:21.534Z,9.52
2023-03-05T06:44:48.762Z,11.60
2023-03-05T06:47:15.991Z,8.70
2023-03-05T06:49:43.288Z,9.77
2023-03-05T06:52:11.126Z,10.57
2023-03-05T06:54:38.308Z,8.35
2023-03-05T06:57:05.560Z,10.38
2023-03-05T06:59:32.683Z,10.43
2023-03-05T07:02:00.017Z,10.43
2023-03-05T07:04:27.475Z,10.02
2023-03-05T07:06:55.813Z,8.85
2023-03-05T07:09:23.093Z,8.15
2023-03-05T07:11:50.545Z,10.15
2023-03-05T07:14:17.687Z,8.70
2023-03-05T07:16:44.724Z,11.13
2023-03-05T07:19:12.102Z,13.02
2023-03-05T07:21:40.131Z,9.63
2023-03-05T07:24:08.420Z,6.75
2023-03-05T07:26:36.014Z,12.93
2023-03-05T07:29:04.791Z,5.35
2023-03-05T07:31:32.498Z,5.63
2023-03-05T07:34:02.728Z,7.68
2023-03-05T07:36:31.078Z,6.68
2023-03-05T07:38:58.241Z,10.55
2023-03-05T07:41:25.378Z,6.45
2023-03-05T07:43:54.355Z,11.15
2023-03-05T07:46:25.080Z,13.77
2023-03-05T07:48:54.737Z,7.47
2023-03-05T07:51:24.101Z,7.05
2023-03-05T07:53:52.591Z,7.80
2023-03-05T07:56:24.523Z,7.82
2023-03-05T07:58:52.750Z,9.32
2023-03-05T08:01:19.845Z,9.00
2023-03-05T08:03:47.365Z,9.02
2023-03-05T08:06:14.285Z,13.95
2023-03-05T08:08:41.544Z,9.77
2023-03-05T08:11:11.782Z,9.25
2023-03-05T08:13:40.040Z,6.90
2023-03-05T08:16:09.418Z,9.27
2023-03-05T08:18:37.572Z,8.00
2023-03-05T08:21:04.664Z,10.88
2023-03-05T08:23:34.478Z,11.02
2023-03-05T08:26:01.645Z,9.63
2023-03-05T08:28:29.482Z,9.73
2023-03-05T08:30:56.537Z,15.85
2023-03-05T08:33:24.125Z,9.82
2023-03-05T08:35:51.035Z,12.02
2023-03-05T08:38:20.941Z,12.80
2023-03-05T08:40:48.449Z,10.05
2023-03-05T08:43:17.474Z,10.68
2023-03-05T08:45:47.452Z,9.82
2023-03-05T08:48:15.620Z,9.45
2023-03-05T08:50:42.799Z,15.73
2023-03-05T08:53:09.944Z,11.77
2023-03-05T08:55:38.106Z,11.18
2023-03-05T08:58:05.362Z,14.48
2023-03-05T09:00:32.478Z,12.40
2023-03-05T09:03:01.324Z,19.80
2023-03-05T09:05:28.241Z,12.25
2023-03-05T09:07:55.640Z,11.55
2023-03-05T09:10:22.885Z,14.20
2023-03-05T09:12:50.352Z,12.30
2023-03-05T09:15:17.189Z,17.95
2023-03-05T09:17:44.653Z,12.93
2023-03-05T09:20:13.113Z,19.98
2023-03-05T09:22:40.696Z,16.75
2023-03-05T09:25:09.127Z,13.55
2023-03-05T09:27:37.811Z,15.88
2023-03-05T09:30:06.046Z,16.40
2023-03-05T09:32:34.000Z,12.15
2023-03-05T09:35:01.130Z,13.57
2023-03-05T09:37:29.476Z,16.42
2023-03-05T09:39:57.430Z,15.32
2023-03-05T09:42:43.213Z,14.27
2023-03-05T09:45:14.190Z,14.15
2023-03-05T09:47:46.677Z,14.40
2023-03-05T09:50:50.655Z,10.85
2023-03-05T09:53:22.520Z,14.95
2023-03-05T09:58:45.026Z,18.63
2023-03-05T10:01:27.315Z,17.77
2023-03-05T10:04:04.348Z,17.70
2023-03-05T10:06:36.986Z,15.93
2023-03-05T10:09:11.334Z,16.45
2023-03-05T10:11:53.452Z,20.05
2023-03-05T10:14:33.478Z,17.63
2023-03-05T10:17:03.329Z,17.85
2023-03-05T10:19:54.224Z,17.95
2023-03-05T10:22:24.891Z,14.38
2023-03-05T10:25:11.077Z,18.45
2023-03-05T10:27:50.511Z,16.13
2023-03-05T10:30:30.440Z,19.65
2023-03-05T10:33:24.084Z,17.77
2023-03-05T10:36:06.346Z,20.35
2023-03-05T10:38:52.917Z,13.65
2023-03-05T10:42:06.464Z,19.63
2023-03-05T10:44:40.685Z,18.35
2023-03-05T10:47:25.549Z,17.55
2023-03-05T10:49:56.297Z,18.15
2023-03-05T10:52:40.661Z,16.20
2023-03-05T10:55:20.960Z,15.68
2023-03-05T10:57:48.780Z,13.68
2023-03-05T11:00:29.017Z,14.02
2023-03-05T11:03:07.821Z,14.50
2023-03-05T11:06:03.546Z,20.13
2023-03-05T11:08:35.896Z,13.23
2023-03-05T11:11:04.037Z,13.95
2023-03-05T11:13:33.079Z,13.82
2023-03-05T11:16:03.990Z,11.63
2023-03-05T11:18:34.663Z,13.95
2023-03-05T11:21:19.906Z,12.00
2023-03-05T11:24:18.345Z,13.20
2023-03-05T11:26:50.279Z,9.15
2023-03-05T11:29:27.381Z,9.57
2023-03-05T11:31:54.857Z,8.82
2023-03-05T11:34:35.341Z,11.45
2023-03-05T11:37:04.669Z,8.77
2023-03-05T11:39:35.323Z,6.45
2023-03-05T11:42:11.976Z,9.63
2023-03-05T11:44:48.555Z,8.90
2023-03-05T11:47:28.577Z,13.70
2023-03-05T11:50:05.894Z,9.43
2023-03-05T11:52:45.002Z,13.93
2023-03-05T11:55:33.092Z,11.93
2023-03-05T11:58:12.438Z,12.35
2023-03-05T12:00:44.606Z,14.63
2023-03-05T12:03:16.520Z,16.27
2023-03-05T12:05:48.468Z,18.20
2023-03-05T12:08:26.513Z,12.30
2023-03-05T12:10:53.783Z,13.73
2023-03-05T12:13:46.635Z,11.02
2023-03-05T12:16:39.475Z,7.95
2023-03-05T12:19:41.905Z,8.77
2023-03-05T12:22:20.032Z,6.95
2023-03-05T12:24:47.605Z,7.60
2023-03-05T12:27:31.088Z,6.35
2023-03-05T12:30:01.544Z,10.70
2023-03-05T12:32:48.718Z,9.40
2023-03-05T12:35:26.770Z,6.68
2023-03-05T12:37:54.329Z,11.55
2023-03-05T12:40:25.628Z,6.47
2023-03-05T12:43:05.106Z,11.15
2023-03-05T12:45:37.183Z,12.80
2023-03-05T12:48:10.900Z,12.43
2023-03-05T12:50:38.244Z,12.68
2023-03-05T12:53:14.132Z,16.70
2023-03-05T12:55:47.397Z,16.33
2023-03-05T12:58:39.874Z,13.77
2023-03-05T13:01:23.464Z,13.35
2023-03-05T13:03:57.110Z,11.52
2023-03-05T13:06:34.702Z,14.32
2023-03-05T13:09:08.203Z,10.38
2023-03-05T13:11:39.193Z,11.02
2023-03-05T13:14:23.657Z,11.57
2023-03-05T13:16:50.786Z,11.88
2023-03-05T13:19:18.365Z,13.27
2023-03-05T13:21:45.340Z,12.43
2023-03-05T13:24:18.374Z,8.88
2023-03-05T13:26:45.695Z,10.93
2023-03-05T13:29:14.322Z,12.45
2023-03-05T13:31:55.887Z,9.35
2023-03-05T13:34:40.940Z,10.73
2023-03-05T13:37:21.730Z,9.00
2023-03-05T13:39:52.134Z,7.55
2023-03-05T13:42:23.620Z,6.70
2023-03-05T13:44:58.832Z,11.70
2023-03-05T13:47:29.819Z,10.02
2023-03-05T13:50:05.135Z,7.20
2023-03-05T13:52:34.684Z,7.00
2023-03-05T13:55:04.522Z,7.70
2023-03-05T13:57:35.922Z,8.98
2023-03-05T14:00:08.363Z,9.63
2023-03-05T14:02:35.334Z,12.13
2023-03-05T14:05:02.600Z,8.68
2023-03-05T14:07:33.998Z,9.88
2023-03-05T14:10:03.846Z,9.45
2023-03-05T14:12:40.981Z,11.88
2023-03-05T14:15:22.432Z,10.75
2023-03-05T14:17:50.005Z,11.95
2023-03-05T14:20:28.182Z,16.38
2023-03-05T14:23:00.693Z,10.65
2023-03-05T14:25:38.359Z,10.20
2023-03-05T14:28:20.349Z,9.35
2023-03-05T14:30:50.984Z,12.85
2023-03-05T14:33:31.318Z,11.20
2023-03-05T14:36:01.382Z,11.15
2023-03-05T14:38:31.735Z,13.30
2023-03-05T14:41:19.237Z,9.77
2023-03-05T14:43:46.549Z,14.95
2023-03-05T14:46:14.001Z,11.77
2023-03-05T14:48:41.064Z,11.65
2023-03-05T14:51:11.518Z,13.13
2023-03-05T14:53:50.254Z,13.15
2023-03-05T14:56:23.918Z,11.32
2023-03-05T14:58:51.440Z,11.10
2023-03-05T15:01:18.753Z,12.40
2023-03-05T15:03:45.698Z,13.98
2023-03-05T15:06:27.219Z,9.95
2023-03-05T15:08:54.385Z,15.50
2023-03-05T15:11:22.742Z,16.95
2023-03-05T15:13:52.713Z,12.23
2023-03-05T15:16:20.729Z,13.38
2023-03-05T15:18:48.877Z,13.15
2023-03-05T15:21:16.359Z,12.18
2023-03-05T15:23:45.065Z,12.90
2023-03-05T15:26:15.090Z,12.20
2023-03-05T15:28:42.987Z,14.15
2023-03-05T15:31:10.826Z,11.57
2023-03-05T15:33:38.136Z,13.90
2023-03-05T15:36:05.725Z,13.75
2023-03-05T15:38:33.022Z,14.77
2023-03-05T15:41:01.959Z,15.25
2023-03-05T15:43:30.819Z,10.68
2023-03-05T15:45:58.109Z,14.32
2023-03-05T15:48:25.264Z,18.02
2023-03-05T15:50:52.709Z,11.00
2023-03-05T15:53:21.555Z,12.93
2023-03-05T15:55:48.992Z,12.70
2023-03-05T15:58:17.636Z,13.27
2023-03-05T16:00:47.415Z,12.25
2023-03-05T16:03:15.495Z,16.35
2023-03-05T16:05:43.345Z,13.68
2023-03-05T16:08:10.744Z,11.85
2023-03-05T16:10:39.624Z,14.90
2023-03-05T16:13:13.656Z,15.13
2023-03-05T16:15:42.376Z,15.70
2023-03-05T16:18:14.165Z,14.75
2023-03-05T16:20:42.072Z,13.73
2023-03-05T16:23:09.010Z,15.10
2023-03-05T16:25:37.883Z,18.02
2023-03-05T16:28:04.869Z,18.40
2023-03-05T16:30:33.150Z,16.77
2023-03-05T16:33:00.598Z,15.10
2023-03-05T16:35:27.839Z,15.95
2023-03-05T16:37:54.872Z,17.33
2023-03-05T16:40:22.244Z,16.48
2023-03-05T16:42:49.496Z,17.08
2023-03-05T16:45:16.787Z,19.70
2023-03-05T16:47:43.742Z,16.60
2023-03-05T16:50:12.068Z,18.65
2023-03-05T16:52:39.282Z,17.88
2023-03-05T16:55:07.414Z,18.40
2023-03-05T16:57:34.999Z,16.35
2023-03-05T17:00:04.331Z,19.23
2023-03-05T17:02:31.461Z,21.17
2023-03-05T17:04:58.759Z,22.33
2023-03-05T17:07:26.630Z,23.98
2023-03-05T17:09:54.788Z,30.55
2023-03-05T17:12:23.294Z,23.35
2023-03-05T17:14:50.570Z,22.73
2023-03-05T17:17:17.639Z,23.00
2023-03-05T17:19:45.120Z,26.80
2023-03-05T17:22:12.970Z,22.83
2023-03-05T17:24:42.891Z,22.42
2023-03-05T17:27:10.619Z,23.42
2023-03-05T17:29:38.136Z,22.13
2023-03-05T17:32:06.036Z,21.05
2023-03-05T17:34:36.775Z,24.08
2023-03-05T17:37:04.995Z,25.50
2023-03-05T17:39:32.815Z,27.10
2023-03-05T17:42:00.872Z,28.17
2023-03-05T17:44:28.062Z,31.73
2023-03-05T17:46:55.007Z,27.73
2023-03-05T17:49:22.577Z,31.13
2023-03-05T17:51:49.488Z,32.80
2023-03-05T17:54:17.079Z,32.30
2023-03-05T17:56:44.096Z,26.83
2023-03-05T17:59:11.528Z,36.47
2023-03-05T18:01:38.435Z,33.95
2023-03-05T18:04:05.885Z,29.25
2023-03-05T18:06:33.359Z,28.15
2023-03-05T18:09:00.901Z,38.97
2023-03-05T18:11:29.073Z,33.40
2023-03-05T18:13:56.617Z,36.53
2023-03-05T18:16:25.454Z,42.15
2023-03-05T18:18:53.231Z,41.58
2023-03-05T18:21:25.267Z,39.50
2023-03-05T18:23:52.538Z,34.80
2023-03-05T18:26:19.511Z,45.03
2023-03-05T18:28:47.713Z,38.08
2023-03-05T18:31:14.667Z,35.88
2023-03-05T18:33:43.002Z,36.95
2023-03-05T18:36:11.860Z,36.03
2023-03-05T18:38:39.650Z,35.03
2023-03-05T18:41:07.958Z,41.85
2023-03-05T18:43:35.805Z,37.38
2023-03-05T18:46:05.108Z,31.45
2023-03-05T18:48:32.406Z,39.92
2023-03-05T18:51:01.850Z,46.25
2023-03-05T18:53:29.958Z,37.85
2023-03-05T18:56:01.913Z,35.08
2023-03-05T18:58:29.143Z,35.08
2023-03-05T19:00:56.365Z,37.58
2023-03-05T19:03:23.884Z,36.17
2023-03-05T19:05:52.414Z,32.08
2023-03-05T19:08:20.323Z,35.22
2023-03-05T19:10:48.048Z,39.08
2023-03-05T19:13:40.032Z,36.40
2023-03-05T19:16:19.038Z,39.08
2023-03-05T19:19:08.943Z,33.88
2023-03-05T19:21:36.312Z,35.28
2023-03-05T19:24:03.574Z,36.00
2023-03-05T19:26:30.825Z,41.00
2023-03-05T19:28:58.123Z,38.95
2023-03-05T19:31:25.310Z,41.25
2023-03-05T19:33:54.687Z,37.05
2023-03-05T19:36:21.975Z,40.72
2023-03-05T19:38:49.737Z,43.35
2023-03-05T19:41:18.036Z,43.10
2023-03-05T19:43:46.658Z,38.10
2023-03-05T19:46:13.836Z,44.88
2023-03-05T19:48:41.602Z,39.63
2023-03-05T19:51:14.222Z,43.15
2023-03-05T19:53:42.355Z,42.13
2023-03-05T19:56:10.467Z,42.58
2023-03-05T19:58:38.756Z,45.97
2023-03-05T20:01:21.793Z,42.05
2023-03-05T20:03:51.850Z,43.60
2023-03-05T20:06:19.632Z,43.33
2023-03-05T20:08:48.326Z,44.00
2023-03-05T20:11:17.441Z,49.58
2023-03-05T20:13:45.184Z,48.20
2023-03-05T20:16:24.044Z,45.80
2023-03-05T20:18:54.782Z,46.35
2023-03-05T20:21:28.340Z,47.05
2023-03-05T20:23:58.205Z,47.08
2023-03-05T20:26:27.023Z,40.80
2023-03-05T20:28:55.430Z,44.97
2023-03-05T20:31:25.267Z,42.15
2023-03-05T20:33:52.593Z,42.15
2023-03-05T20:36:20.541Z,43.08
2023-03-05T20:38:47.737Z,37.03
2023-03-05T20:41:17.102Z,34.22
2023-03-05T20:43:47.709Z,39.63
2023-03-05T20:46:36.458Z,34.95
2023-03-05T20:49:04.648Z,37.50
2023-03-05T20:51:37.805Z,41.67
2023-03-05T20:54:08.724Z,42.45
2023-03-05T20:56:36.172Z,39.90
2023-03-05T20:59:06.262Z,41.17
2023-03-05T21:01:35.638Z,38.65
2023-03-05T21:04:04.007Z,35.40
2023-03-05T21:06:32.740Z,39.13
2023-03-05T21:09:00.638Z,42.88
2023-03-05T21:11:29.912Z,38.80
2023-03-05T21:13:58.115Z,42.40
2023-03-05T21:16:27.303Z,36.72
2023-03-05T21:18:57.202Z,46.30
2023-03-05T21:21:24.227Z,38.65
2023-03-05T21:23:52.200Z,39.55
2023-03-05T21:26:19.706Z,39.75
2023-03-05T21:28:48.008Z,38.05
2023-03-05T21:31:20.565Z,38.55
2023-03-05T21:33:48.218Z,41.60
2023-03-05T21:36:18.730Z,44.35
2023-03-05T21:38:47.546Z,42.30
2023-03-05T21:41:14.688Z,50.65
2023-03-05T21:43:42.749Z,39.50
2023-03-05T21:46:10.981Z,36.78
2023-03-05T21:48:38.510Z,40.53
2023-03-05T21:51:08.863Z,40.55
2023-03-05T21:53:36.572Z,42.20
2023-03-05T21:56:21.116Z,40.13
2023-03-05T21:58:49.738Z,39.13
2023-03-05T22:01:19.296Z,41.15
2023-03-05T22:03:47.850Z,33.00
2023-03-05T22:06:16.986Z,31.33
2023-03-05T22:08:46.199Z,35.05
2023-03-05T22:11:16.572Z,32.45
2023-03-05T22:13:44.368Z,36.05
2023-03-05T22:16:11.720Z,33.40
2023-03-05T22:18:39.285Z,40.00
2023-03-05T22:21:18.548Z,40.42
2023-03-05T22:23:47.004Z,34.47
2023-03-05T22:26:14.084Z,32.97
2023-03-05T22:28:42.718Z,36.30
2023-03-05T22:31:10.438Z,37.08
2023-03-05T22:33:37.868Z,37.50
2023-03-05T22:36:10.422Z,36.30
2023-03-05T22:38:38.008Z,39.25
2023-03-05T22:41:10.774Z,39.55
2023-03-05T22:43:38.375Z,42.38
2023-03-05T22:46:26.096Z,38.63
2023-03-05T22:48:53.856Z,40.28
2023-03-05T22:51:21.150Z,38.08
2023-03-05T22:53:49.069Z,42.83
2023-03-05T22:56:18.818Z,39.55
2023-03-05T22:58:47.166Z,38.93
2023-03-05T23:01:20.453Z,38.47
2023-03-05T23:03:53.306Z,38.17
2023-03-05T23:06:20.501Z,36.45
2023-03-05T23:08:47.905Z,40.45
2023-03-05T23:11:14.955Z,38.65
2023-03-05T23:13:42.460Z,36.83
2023-03-05T23:16:09.812Z,36.83
2023-03-05T23:18:37.548Z,30.92
2023-03-05T23:21:04.646Z,41.60
2023-03-05T23:23:32.869Z,41.72
2023-03-05T23:25:59.680Z,40.25
2023-03-05T23:28:27.434Z,38.10
2023-03-05T23:30:54.364Z,43.08
2023-03-05T23:33:23.340Z,36.20
2023-03-05T23:35:59.507Z,36.42
2023-03-05T23:38:28.870Z,36.17
2023-03-05T23:40:59.126Z,37.13
2023-03-05T23:43:28.511Z,41.50
2023-03-05T23:45:56.657Z,38.00
2023-03-05T23:48:25.158Z,36.47
2023-03-05T23:50:52.763Z,50.40
2023-03-05T23:53:26.311Z,39.40
2023-03-05T23:55:54.102Z,44.47
2023-03-05T23:58:21.883Z,47.30
